• Join FlightAware (Why Join?)
  • Login
  • US Flag 
11:19PM EDT


 

Airport Tracker/Info


-or-


 

Live Flight TrackerFlight Track Log ✈ UAL4376 ✈ 01-Jul-2013 ✈ KIAH - KGSP

Flight Track Log - Related Links

Times and Time Zones

All times are in EDT time to prevent confusion due to time zone crossing. See the UAL4376 flight status page for this flight to view local times or setup timezone preferences in your user account.

Time Position Orientation Groundspeed Altitude Reporting Facility
EDT Latitude Longitude Course Direction KTS MPH feet Rate Location/Type
02:27PM 29.8850 -94.5306 97° East  Level FlightAware Approximate
02:28PM 29.8700 -94.3966 97° East  Level FlightAware Approximate
02:29PM 29.8500 -94.2669 90° East  Level FlightAware Approximate
02:30PM 29.8500 -94.1318 90° East  Level FlightAware Approximate
02:31PM 29.8552 -93.9971 81° East  Level FlightAware Approximate
02:32PM 29.8671 -93.8631 82° East  Level FlightAware Approximate
02:33PM 29.8833 -93.7293 90° East  Level FlightAware Approximate
02:34PM 29.8899 -93.5947 82° East  Level FlightAware Approximate
02:35PM 29.9057 -93.4608 82° East  Level FlightAware Approximate
02:36PM 29.9167 -93.3264 90° East  Level FlightAware Approximate
02:37PM 29.9331 -93.1932 78° East  Level FlightAware Approximate
02:38PM 29.9534 -93.0602 84° East  Level FlightAware Approximate
02:39PM 29.9646 -92.9255 84° East  Level FlightAware Approximate
02:40PM 29.9667 -92.7904 90° East  Level FlightAware Approximate
02:41PM 29.9824 -92.6566 81° East  Level FlightAware Approximate
02:42PM 29.9917 -92.5218 85° East  Level FlightAware Approximate
02:43PM 30.0018 -92.3870 85° East  Level FlightAware Approximate
02:44PM 30.0117 -92.2521 85° East  Level FlightAware Approximate
02:45PM 30.0214 -92.1173 85° East  Level FlightAware Approximate
02:46PM 30.0310 -91.9824 85° East  Level FlightAware Approximate
02:47PM 30.0405 -91.8475 85° East  Level FlightAware Approximate
02:48PM 30.0499 -91.7125 85° East  Level FlightAware Approximate
02:49PM 30.0590 -91.5776 85° East  Level FlightAware Approximate
02:50PM 30.0681 -91.4426 86° East  Level FlightAware Approximate
02:51PM 30.0770 -91.3075 86° East  Level FlightAware Approximate
02:52PM 30.0858 -91.1725 86° East  Level FlightAware Approximate
02:53PM 30.0945 -91.0374 86° East  Level FlightAware Approximate
02:54PM 30.1115 -90.9041 74° East  Level FlightAware Approximate
02:55PM 30.1441 -90.7740 74° East  Level FlightAware Approximate
02:56PM 30.1766 -90.6438 74° East  Level FlightAware Approximate
02:57PM 30.2092 -90.5135 74° East  Level FlightAware Approximate
02:58PM 30.2416 -90.3832 74° East  Level FlightAware Approximate
02:59PM 30.2739 -90.2528 74° East  Level FlightAware Approximate
03:00PM 30.3061 -90.1223 74° East  Level FlightAware Approximate
03:01PM 30.3381 -89.9917 74° East  Level FlightAware Approximate
03:02PM 30.3700 -89.8611 74° East  Level FlightAware Approximate
03:03PM 30.4018 -89.7303 74° East  Level FlightAware Approximate
03:04PM 30.4335 -89.5995 75° East  Level FlightAware Approximate
03:05PM 30.4639 -89.4682 75° East  Level FlightAware Approximate
03:06PM 30.4941 -89.3368 75° East  Level FlightAware Approximate
03:07PM 30.5243 -89.2054 75° East  Level FlightAware Approximate
03:08PM 30.5543 -89.0739 75° East  Level FlightAware Approximate
03:09PM 30.5841 -88.9423 75° East  Level FlightAware Approximate
03:10PM 30.6138 -88.8106 75° East  Level FlightAware Approximate
03:11PM 30.6434 -88.6788 75° East  Level FlightAware Approximate
03:12PM 30.6729 -88.5470 75° East  Level FlightAware Approximate
03:13PM 30.7023 -88.4150 75° East  Level FlightAware Approximate
03:14PM 30.7559 -88.2981 49° Northeast  Level FlightAware Approximate
03:15PM 30.8333 -88.1956 49° Northeast  Level FlightAware Approximate
03:16PM 30.9106 -88.0930 49° Northeast  Level FlightAware Approximate
03:17PM 30.9878 -87.9902 49° Northeast  Level FlightAware Approximate
03:18PM 31.0649 -87.8873 49° Northeast  Level FlightAware Approximate
03:19PM 31.1420 -87.7841 49° Northeast  Level FlightAware Approximate
03:20PM 31.2189 -87.6809 49° Northeast  Level FlightAware Approximate
03:21PM 31.2940 -87.5757 52° Northeast  Level FlightAware Approximate
03:22PM 31.3684 -87.4697 49° Northeast  Level FlightAware Approximate
03:23PM 31.4455 -87.3664 49° Northeast  Level FlightAware Approximate
03:24PM 31.5226 -87.2628 49° Northeast  Level FlightAware Approximate
03:25PM 31.5995 -87.1591 49° Northeast  Level FlightAware Approximate
03:26PM 31.6764 -87.0552 49° Northeast  Level FlightAware Approximate
03:27PM 31.7531 -86.9511 49° Northeast  Level FlightAware Approximate
03:28PM 31.8298 -86.8469 49° Northeast  Level FlightAware Approximate
03:29PM 31.9064 -86.7425 49° Northeast  Level FlightAware Approximate
03:30PM 31.9830 -86.6379 49° Northeast  Level FlightAware Approximate
03:31PM 32.0594 -86.5331 49° Northeast  Level FlightAware Approximate
03:32PM 32.1357 -86.4282 49° Northeast  Level FlightAware Approximate
03:33PM 32.2120 -86.3231 49° Northeast  Level FlightAware Approximate
03:34PM 32.2848 -86.2145 52° Northeast  Level FlightAware Approximate
03:35PM 32.3575 -86.1057 52° Northeast  Level FlightAware Approximate
03:36PM 32.4302 -85.9969 52° Northeast  Level FlightAware Approximate
03:37PM 32.5028 -85.8878 52° Northeast  Level FlightAware Approximate
03:38PM 32.5753 -85.7786 52° Northeast  Level FlightAware Approximate
03:39PM 32.6477 -85.6693 52° Northeast  Level FlightAware Approximate
03:40PM 32.7200 -85.5597 52° Northeast  Level FlightAware Approximate
03:41PM 32.7922 -85.4500 52° Northeast  Level FlightAware Approximate
03:42PM 32.8643 -85.3401 52° Northeast  Level FlightAware Approximate
03:43PM 32.9364 -85.2300 52° Northeast  Level FlightAware Approximate
03:44PM 33.0083 -85.1197 52° Northeast  Level FlightAware Approximate
03:45PM 33.0801 -85.0093 52° Northeast  Level FlightAware Approximate
03:46PM 33.1519 -84.8986 52° Northeast  Level FlightAware Approximate
03:47PM 33.2242 -84.7885 52° Northeast  Level FlightAware Approximate
03:48PM 33.2970 -84.6786 52° Northeast  Level FlightAware Approximate
03:49PM 33.3697 -84.5686 52° Northeast  Level FlightAware Approximate
03:50PM 33.4422 -84.4584 52° Northeast  Level FlightAware Approximate
03:51PM 33.5147 -84.3480 52° Northeast  Level FlightAware Approximate
03:52PM 33.5871 -84.2374 52° Northeast  Level FlightAware Approximate
03:53PM 33.6598 -84.1270 51° Northeast  Level FlightAware Approximate
03:54PM 33.7288 -84.0132 54° Northeast  Level FlightAware Approximate
03:55PM 33.7985 -83.9000 52° Northeast  Level FlightAware Approximate
03:56PM 33.8698 -83.7880 53° Northeast  Level FlightAware Approximate
03:57PM 33.9418 -83.6766 52° Northeast  Level FlightAware Approximate
03:58PM 34.0139 -83.5652 52° Northeast  Level FlightAware Approximate
03:59PM 34.0850 -83.4528 54° Northeast  Level FlightAware Approximate
04:00PM 34.1538 -83.3382 54° Northeast  Level FlightAware Approximate
04:01PM 34.2226 -83.2235 54° Northeast  Level FlightAware Approximate
04:02PM 34.2924 -83.1096 52° Northeast  Level FlightAware Approximate
04:03PM 34.3638 -82.9972 52° Northeast  Level FlightAware Approximate
04:04PM 34.4352 -82.8845 52° Northeast  Level FlightAware Approximate
04:05PM 34.5065 -82.7717 53° Northeast  Level FlightAware Approximate
04:06PM 34.5776 -82.6587 53° Northeast  Level FlightAware Approximate
04:07PM 34.6487 -82.5454 53° Northeast  Level FlightAware Approximate
04:08PM 34.7196 -82.4320 53° Northeast  Level FlightAware Approximate
04:09PM 34.7865 -82.3150 57° Northeast  Level FlightAware Approximate
04:10PM 34.8504 -82.1953 57° Northeast  Level FlightAware Approximate
04:11PM 34.8957 -82.2189 49° Northeast  Level Estimated
04:12PM 34.8957 -82.2189 48° Northeast  Level Estimated
04:13PM 34.8957 -82.2189 270° West  Level Estimated
04:14PM 34.8957 -82.2189 248° West  Level Estimated
04:15PM 34.8957 -82.2189 231° Southwest  Level Estimated
04:16PM 34.8957 -82.2189 231° Southwest  Level Estimated
04:17PM 34.8957 -82.2189 231° Southwest  Level Estimated
04:18PM 34.8957 -82.2189 231° Southwest  Level Estimated